Flight Track Log - Related Links

Times and Time Zones

All times are in EDT time to prevent confusion due to time zone crossing. See the N110HM flight status page for this flight to view local times or setup timezone preferences in your user account.

Time Position Orientation Groundspeed Altitude Reporting Facility
EDT Latitude Longitude Course Direction KTS MPH feet Rate Location/Type
Fri 09:31:15 PM 32.8660 -97.0247 277° West  Level FlightAware Approximate
Fri 09:32:08 PM 32.8667 -97.0311 165° South 162 186 2,300  Level FAA TRACON SMA TRACON (SMA)
Fri 09:32:48 PM 32.8383 -97.0222 155° Southeast 174 200 3,400 1,875 Climbing FAA TRACON SMA TRACON (SMA)
Fri 09:33:28 PM 32.8053 -97.0039 145° Southeast 195 224 4,800 1,556 Climbing FAA TRACON SMA TRACON (SMA)
Fri 09:34:09 PM 32.7692 -96.9739 93° East 254 292 5,500 1,650 Climbing FAA TRACON SMA TRACON (SMA)
Fri 09:34:48 PM 32.7664 -96.9075 87° East 302 348 7,000 2,154 Climbing FAA TRACON SMA TRACON (SMA)
Fri 09:35:27 PM 32.7694 -96.8436 70° East 319 367 8,300 2,430 Climbing FAA TRACON SMA TRACON (SMA)
Fri 09:36:07 PM 32.7906 -96.7733 65° Northeast 336 387 10,200 2,074 Climbing FAA TRACON SMA TRACON (SMA)
Fri 09:36:48 PM 32.8194 -96.7008 64° Northeast 351 404 11,100 1,407 Climbing FAA TRACON SMA TRACON (SMA)
Fri 09:37:28 PM 32.8481 -96.6297 63° Northeast 388 447 12,100 1,800 Climbing FAA TRACON SMA TRACON (SMA)
Fri 09:38:08 PM 32.8839 -96.5467 64° Northeast 409 471 13,500 2,506 Climbing FAA TRACON SMA TRACON (SMA)
Fri 09:38:47 PM 32.9197 -96.4608 61° Northeast 417 480 15,400 2,550 Climbing FAA TRACON SMA TRACON (SMA)
Fri 09:39:28 PM 32.9544 -96.3853 70° East 423 487 16,900 2,325 Climbing FAA TRACON SMA TRACON (SMA)
Fri 09:40:07 PM 32.9819 -96.2936 77° East 428 493 18,500 2,175 Climbing FAA TRACON SMA TRACON (SMA)
Fri 09:40:48 PM 33.0008 -96.1956 67° East 441 507 19,800 1,704 Climbing FAA TRACON SMA TRACON (SMA)
Fri 09:41:28 PM 33.0303 -96.1111 68° East 449 517 20,800 1,650 Climbing FAA TRACON SMA TRACON (SMA)
Fri 09:42:08 PM 33.0631 -96.0144 69° East 455 524 22,000 1,725 Climbing FAA TRACON SMA TRACON (SMA)
Fri 09:42:48 PM 33.0950 -95.9156 80° East 462 532 23,100 1,421 Climbing FAA TRACON SMA TRACON (SMA)
Fri 09:43:24 PM 33.1056 -95.8461 71° East 458 527 23,800 1,375 Climbing Fort Worth Center
Fri 09:44:24 PM 33.1494 -95.6964 72° East 472 543 25,300 1,350 Climbing Fort Worth Center
Fri 09:45:24 PM 33.1892 -95.5492 72° East 472 543 26,500 1,150 Climbing Fort Worth Center
Fri 09:46:24 PM 33.2325 -95.3919 70° East 477 549 27,600 1,350 Climbing Fort Worth Center
Fri 09:47:24 PM 33.2800 -95.2367 72° East 488 562 29,200 1,450 Climbing Fort Worth Center
Fri 09:48:24 PM 33.3231 -95.0792 70° East 488 562 30,500 1,200 Climbing Fort Worth Center
Fri 09:49:24 PM 33.3683 -94.9261 71° East 488 562 31,600 1,050 Climbing Fort Worth Center
Fri 09:50:24 PM 33.4131 -94.7731 71° East 488 562 32,600 700 Climbing Fort Worth Center
Fri 09:51:24 PM 33.4578 -94.6175 72° East 488 562 33,000 200 Climbing Fort Worth Center
Fri 09:52:24 PM 33.5003 -94.4642 71° East 488 562 33,000  Level Fort Worth Center
Fri 09:53:24 PM 33.5444 -94.3106 71° East 488 562 33,000  Level Fort Worth Center
Fri 09:54:24 PM 33.5867 -94.1594 72° East 488 562 33,000  Level Fort Worth Center
Fri 09:55:24 PM 33.6342 -93.9881 72° East 488 562 33,000  Level Fort Worth Center
Fri 09:56:24 PM 33.6758 -93.8317 72° East 488 562 33,000  Level Fort Worth Center
Fri 09:57:24 PM 33.7172 -93.6803 73° East 483 556 33,000  Level Fort Worth Center
Fri 09:58:31 PM 33.7569 -93.5253 72° East 484 557 33,000  Level Memphis Center
Fri 09:59:31 PM 33.7983 -93.3742 71° East 484 557 33,000 -50 Level Memphis Center
Fri 10:00:31 PM 33.8417 -93.2208 73° East 479 551 32,900  Descending Memphis Center
Fri 10:01:31 PM 33.8803 -93.0694 72° East 479 551 33,000 100 Climbing Memphis Center
Fri 10:02:31 PM 33.9211 -92.9181 73° East 479 551 33,100  Climbing Memphis Center
Fri 10:03:31 PM 33.9597 -92.7639 72° East 479 551 33,000 -50 Descending Memphis Center
Fri 10:04:31 PM 34.0022 -92.6097 72° East 479 551 33,000  Level Memphis Center
Fri 10:05:31 PM 34.0425 -92.4553 75° East 479 551 33,000  Level Memphis Center
Fri 10:06:31 PM 34.0808 -92.2831 72° East 479 551 33,000 50 Level Memphis Center
Fri 10:07:31 PM 34.1206 -92.1336 74° East 474 545 33,100  Climbing Memphis Center
Fri 10:08:31 PM 34.1581 -91.9786 72° East 474 545 33,000 -50 Descending Memphis Center
Fri 10:09:31 PM 34.1997 -91.8239 74° East 474 545 33,000  Level Memphis Center
Fri 10:10:31 PM 34.2347 -91.6711 72° East 474 545 33,000  Level Memphis Center
Fri 10:11:31 PM 34.2758 -91.5158 73° East 474 545 33,000 50 Level Memphis Center
Fri 10:12:31 PM 34.3147 -91.3656 74° East 466 536 33,100  Climbing Memphis Center
Fri 10:13:31 PM 34.3514 -91.2150 74° East 466 536 33,000 -100 Descending Memphis Center
Fri 10:14:31 PM 34.3878 -91.0619 73° East 466 536 32,900 -50 Descending Memphis Center
Fri 10:15:31 PM 34.4261 -90.9111 73° East 466 536 32,900 50 Level Memphis Center
Fri 10:16:31 PM 34.4642 -90.7578 74° East 471 542 33,000 100 Climbing Memphis Center
Fri 10:17:31 PM 34.5000 -90.6042 74° East 471 542 33,100  Climbing Memphis Center
Fri 10:18:31 PM 34.5358 -90.4528 73° East 471 542 33,000 -50 Descending Memphis Center
Fri 10:19:31 PM 34.5733 -90.3017 74° East 471 542 33,000 -50 Level Memphis Center
Fri 10:20:31 PM 34.6086 -90.1478 74° East 471 542 32,900 -50 Descending Memphis Center
Fri 10:21:31 PM 34.6397 -90.0139 75° East 466 536 32,900 50 Level Memphis Center
Fri 10:22:31 PM 34.6744 -89.8572 76° East 472 543 33,000 50 Climbing Memphis Center
Fri 10:23:31 PM 34.7114 -89.6800 72° East 477 549 33,000  Level Memphis Center
Fri 10:24:31 PM 34.7519 -89.5231 74° East 482 555 33,000 50 Level Memphis Center
Fri 10:25:31 PM 34.7883 -89.3658 73° East 482 555 33,100  Climbing Memphis Center
Fri 10:26:31 PM 34.8267 -89.2086 74° East 477 549 33,000  Descending Memphis Center
Fri 10:27:31 PM 34.8586 -89.0689 74° East 477 549 33,100  Climbing Memphis Center
Fri 10:28:31 PM 34.8944 -88.9114 75° East 482 555 33,000 -50 Descending Memphis Center
Fri 10:29:31 PM 34.9281 -88.7539 74° East 477 549 33,000  Level Memphis Center
Fri 10:30:31 PM 34.9656 -88.5986 75° East 477 549 33,000  Level Memphis Center
Fri 10:31:31 PM 34.9989 -88.4483 75° East 477 549 33,000  Level Memphis Center
Fri 10:32:31 PM 35.0339 -88.2903 75° East 465 535 33,000  Level Memphis Center
Fri 10:33:31 PM 35.0686 -88.1269 75° East 487 560 33,000 50 Level Memphis Center
Fri 10:34:31 PM 35.1050 -87.9558 74° East 487 560 33,100  Climbing Memphis Center
Fri 10:35:31 PM 35.1358 -87.8231 75° East 475 547 33,000 -100 Descending Memphis Center
Fri 10:36:31 PM 35.1739 -87.6492 75° East 469 540 32,900  Descending Memphis Center
Fri 10:38:40 PM 35.2425 -87.3269 76° East 488 562 33,000 63 Climbing Atlanta Center
Fri 10:39:40 PM 35.2758 -87.1653 76° East 488 562 33,100  Climbing Atlanta Center
Fri 10:40:40 PM 35.3069 -87.0114 77° East 488 562 33,000 -50 Descending Atlanta Center
Fri 10:41:40 PM 35.3378 -86.8519 75° East 483 556 33,000  Level Atlanta Center
Fri 10:42:40 PM 35.3725 -86.6928 76° East 483 556 33,000  Level Atlanta Center
Fri 10:43:40 PM 35.4075 -86.5206 78° East 478 550 33,000  Level Atlanta Center
Fri 10:44:40 PM 35.4356 -86.3608 76° East 473 544 33,000  Level Atlanta Center
Fri 10:45:40 PM 35.4678 -86.2036 76° East 473 544 33,000  Level Atlanta Center
Fri 10:46:40 PM 35.4950 -86.0642 76° East 464 534 33,000  Level Atlanta Center
Fri 10:47:40 PM 35.5267 -85.9092 77° East 464 534 33,000 -50 Level Atlanta Center
Fri 10:48:40 PM 35.5561 -85.7542 77° East 470 541 32,900 -50 Descending Atlanta Center
Fri 10:49:40 PM 35.5853 -85.5964 75° East 470 541 32,900 100 Level Atlanta Center
Fri 10:50:40 PM 35.6186 -85.4386 77° East 470 541 33,100 100 Climbing Atlanta Center
Fri 10:51:40 PM 35.6472 -85.2833 77° East 470 541 33,100 -50 Level Atlanta Center
Fri 10:52:40 PM 35.6758 -85.1253 77° East 470 541 33,000 -100 Descending Atlanta Center
Fri 10:53:40 PM 35.7044 -84.9722 77° East 470 541 32,900  Descending Atlanta Center
Fri 10:54:40 PM 35.7347 -84.8089 74° East 470 541 33,000  Climbing Atlanta Center
Fri 10:55:40 PM 35.7711 -84.6531 63° Northeast 470 541 32,900  Descending Atlanta Center
Fri 10:56:40 PM 35.8300 -84.5100 65° Northeast 465 535 33,000 100 Climbing Atlanta Center
Fri 10:57:40 PM 35.8869 -84.3592 67° East 472 543 33,100 50 Climbing Atlanta Center
Fri 10:58:40 PM 35.9392 -84.2081 67° East 477 549 33,100  Level Atlanta Center
Fri 10:59:40 PM 35.9917 -84.0542 67° East 477 549 33,100  Level Atlanta Center
Fri 11:00:40 PM 36.0436 -83.9053 67° East 477 549 33,100 -50 Level Atlanta Center
Fri 11:01:40 PM 36.0956 -83.7561 68° East 472 543 33,000 -100 Descending Atlanta Center
Fri 11:02:40 PM 36.1450 -83.6067 68° East 472 543 32,900 -50 Descending Atlanta Center
Fri 11:03:40 PM 36.1986 -83.4444 67° East 464 534 32,900 50 Level Atlanta Center
Fri 11:04:40 PM 36.2519 -83.2919 68° East 469 540 33,000 100 Climbing Atlanta Center
Fri 11:05:40 PM 36.3011 -83.1397 67° East 474 545 33,100 50 Climbing Atlanta Center
Fri 11:06:40 PM 36.3519 -82.9894 67° East 474 545 33,100  Level Atlanta Center
Fri 11:07:40 PM 36.4028 -82.8367 67° East 474 545 33,100 -50 Level Atlanta Center
Fri 11:08:40 PM 36.4553 -82.6836 68° East 474 545 33,000 -50 Descending Atlanta Center
Fri 11:09:40 PM 36.5036 -82.5331 67° East 474 545 33,000 -50 Level Atlanta Center
Fri 11:10:40 PM 36.5539 -82.3872 68° East 463 533 32,900 -50 Descending Atlanta Center
Fri 11:11:40 PM 36.6019 -82.2364 67° East 458 527 32,900 50 Level Atlanta Center
Fri 11:12:40 PM 36.6539 -82.0850 69° East 458 527 33,000 100 Climbing Atlanta Center
Fri 11:13:40 PM 36.7014 -81.9311 68° East 463 533 33,100 50 Climbing Atlanta Center
Fri 11:14:40 PM 36.7508 -81.7797 68° East 470 541 33,100 -50 Level Atlanta Center
Fri 11:15:40 PM 36.8000 -81.6253 70° East 475 547 33,000 -550 Descending Atlanta Center
Fri 11:16:40 PM 36.8389 -81.4892 67° East 470 541 32,000 -1,250 Descending Atlanta Center
Fri 11:17:40 PM 36.8897 -81.3397 70° East 470 541 30,500 -1,650 Descending Atlanta Center
Fri 11:18:40 PM 36.9364 -81.1822 68° East 475 547 28,700 -1,750 Descending Atlanta Center
Fri 11:19:40 PM 36.9906 -81.0114 71° East 475 547 27,000 -507 Descending Atlanta Center
Fri 11:22:01 PM 37.0856 -80.6639 95° East 477 549 27,000  Level Washington Center
Fri 11:23:02 PM 37.0725 -80.4781 94° East 471 542 27,000  Level Washington Center
Fri 11:23:59 PM 37.0625 -80.3056 94° East 479 551 27,000  Level Washington Center
Fri 11:25:00 PM 37.0525 -80.1383 103° East 479 551 27,000 -146 Level Washington Center
Fri 11:26:02 PM 37.0244 -79.9911 113° Southeast 484 557 26,700 -694 Descending Washington Center
Fri 11:27:01 PM 36.9717 -79.8372 114° Southeast 484 557 25,600 -1,050 Descending Washington Center
Fri 11:28:02 PM 36.9183 -79.6889 115° Southeast 479 551 24,600 -1,210 Descending Washington Center
Fri 11:29:00 PM 36.8572 -79.5272 135° Southeast 465 535 23,200 -1,412 Descending Washington Center
Fri 11:30:01 PM 36.7708 -79.4192 134° Southeast 452 520 21,800 -1,550 Descending Washington Center
Fri 11:31:00 PM 36.6867 -79.3114 134° Southeast 441 507 20,100 -1,884 Descending Washington Center
Fri 11:32:02 PM 36.6064 -79.2067 135° Southeast 430 495 18,000 -2,400 Descending Washington Center
Fri 11:33:00 PM 36.5300 -79.1125 135° Southeast 406 467 15,300 -3,000 Descending Washington Center
Fri 11:33:36 PM 36.4856 -79.0564 131° Southeast 384 442 13,300 -2,063 Descending Washington Center
Fri 11:34:36 PM 36.4175 -78.9603 160° South 373 429 12,000 -639 Descending Washington Center
Fri 11:35:38 PM 36.3228 -78.9178 174° South 361 415 12,000 -393 Level Washington Center
Fri 11:36:38 PM 36.2353 -78.9061 185° South 313 360 11,200 -1,140 Descending Washington Center
Fri 11:37:39 PM 36.1539 -78.9156 183° South 301 346 9,700 -1,488 Descending Washington Center
Fri 11:38:39 PM 36.0722 -78.9200 187° South 289 333 8,200 -1,736 Descending Washington Center
Fri 11:39:40 PM 35.9947 -78.9319 189° South 269 310 6,200 -2,132 Descending Washington Center
Fri 11:40:40 PM 35.9297 -78.9447 189° South 245 282 3,900 -2,300 Descending Washington Center

Login

Don't have an account? Register now (free) for customized features, flight alerts, and more!